createdAt,value
2019-02-16T00:01:22.517Z,10744.7
2019-02-16T00:11:21.726Z,10744.9
2019-02-16T00:21:20.939Z,10745
2019-02-16T00:31:20.143Z,10745.1
2019-02-16T00:41:19.351Z,10745.2
2019-02-16T00:51:18.562Z,10745.3
2019-02-16T01:01:17.766Z,10745.5
2019-02-16T01:11:16.976Z,10745.6
2019-02-16T01:21:22.388Z,10745.7
2019-02-16T01:31:15.392Z,10745.8
2019-02-16T01:41:14.598Z,10745.9
2019-02-16T01:51:13.803Z,10746
2019-02-16T02:01:13.010Z,10746.2
2019-02-16T02:11:12.219Z,10746.3
2019-02-16T02:21:11.425Z,10746.4
2019-02-16T02:31:10.633Z,10746.6
2019-02-16T02:41:09.842Z,10746.7
2019-02-16T02:51:09.046Z,10746.8
2019-02-16T03:01:08.253Z,10746.9
2019-02-16T03:11:07.459Z,10747
2019-02-16T03:21:06.666Z,10747.1
2019-02-16T03:37:51.501Z,10746.7
2019-02-16T03:47:50.707Z,10746.8
2019-02-16T03:57:49.914Z,10746.9
2019-02-16T04:07:49.120Z,10747
2019-02-16T04:17:48.329Z,10747.1
2019-02-16T04:27:47.531Z,10747.2
2019-02-16T04:37:46.795Z,10747.4
2019-02-16T04:47:46.092Z,10747.5
2019-02-16T04:57:45.387Z,10747.6
2019-02-16T05:07:44.673Z,10747.7
2019-02-16T05:17:43.963Z,10747.9
2019-02-16T05:27:43.253Z,10748
2019-02-16T05:37:42.461Z,10748.1
2019-02-16T05:47:41.667Z,10748.2
2019-02-16T05:57:40.872Z,10748.3
2019-02-16T06:07:40.081Z,10748.5
2019-02-16T06:17:39.283Z,10748.6
2019-02-16T06:39:10.587Z,10748.1
2019-02-16T06:49:09.793Z,10748.1
2019-02-16T06:59:08.999Z,10748.2
2019-02-16T07:09:08.206Z,10748.3
2019-02-16T07:19:07.416Z,10748.4
2019-02-16T07:29:06.623Z,10748.4
2019-02-16T07:39:05.887Z,10748.5
2019-02-16T07:49:05.179Z,10748.6
2019-02-16T07:59:04.472Z,10748.6
2019-02-16T08:09:03.765Z,10748.7
2019-02-16T08:19:03.117Z,10748.8
2019-02-16T08:29:02.368Z,10748.8
2019-02-16T08:39:01.570Z,10748.9
2019-02-16T08:49:00.781Z,10748.9
2019-02-16T08:59:54.631Z,10748.9
2019-02-16T09:09:53.890Z,10749
2019-02-16T09:19:53.055Z,10749
2019-02-16T09:29:52.268Z,10749.1
2019-02-16T09:39:51.485Z,10749.1
2019-02-16T09:49:50.751Z,10749.2
2019-02-16T09:59:50.018Z,10749.2
2019-02-16T10:09:51.332Z,10749.3
2019-02-16T10:19:48.559Z,10749.4
2019-02-16T10:29:47.902Z,10749.4
2019-02-16T10:39:47.198Z,10749.5
2019-02-16T10:49:46.445Z,10749.5
2019-02-16T10:59:45.956Z,10749.6
2019-02-16T11:09:44.878Z,10749.7
2019-02-16T11:19:44.144Z,10749.7
2019-02-16T11:29:43.313Z,10749.9
2019-02-16T11:39:42.528Z,10749.9
2019-02-16T11:49:41.836Z,10750
2019-02-16T12:01:03.537Z,10750.2
2019-02-16T12:11:02.748Z,10750.2
2019-02-16T12:21:01.969Z,10750.3
2019-02-16T12:31:01.193Z,10750.3
2019-02-16T12:41:00.404Z,10750.4
2019-02-16T12:50:59.640Z,10750.4
2019-02-16T13:00:58.936Z,10750.5
2019-02-16T13:10:58.191Z,10750.6
2019-02-16T13:20:57.473Z,10750.7
2019-02-16T13:30:56.771Z,10750.7
2019-02-16T13:40:56.063Z,10750.8
2019-02-16T13:53:44.977Z,10750.5
2019-02-16T14:03:44.187Z,10750.6
2019-02-16T14:13:43.398Z,10750.6
2019-02-16T14:23:42.610Z,10750.7
2019-02-16T14:33:41.822Z,10750.8
2019-02-16T14:43:41.033Z,10750.9
2019-02-16T14:53:40.301Z,10750.9
2019-02-16T15:03:39.598Z,10751
2019-02-16T15:13:38.891Z,10751.1
2019-02-16T15:23:38.669Z,10751.2
2019-02-16T15:33:38.892Z,10751.3
2019-02-16T15:43:38.108Z,10751.4
2019-02-16T15:53:37.376Z,10751.5
2019-02-16T16:03:36.544Z,10751.6
2019-02-16T16:13:35.760Z,10751.7
2019-02-16T16:23:34.985Z,10751.8
2019-02-16T16:33:34.228Z,10751.9
2019-02-16T16:43:33.410Z,10752
2019-02-16T16:53:32.627Z,10752.1
2019-02-16T17:03:31.844Z,10752.2
2019-02-16T17:13:31.064Z,10752.3
2019-02-16T17:23:30.284Z,10752.4
2019-02-16T17:33:29.502Z,10752.5
2019-02-16T17:43:28.721Z,10752.5
2019-02-16T17:53:27.937Z,10752.6
2019-02-16T18:03:27.155Z,10752.7
2019-02-16T18:13:26.372Z,10752.8
2019-02-16T18:23:25.589Z,10752.9
2019-02-16T18:33:24.832Z,10753
2019-02-16T18:43:24.014Z,10753
2019-02-16T18:53:23.226Z,10753.1
2019-02-16T19:03:22.479Z,10753.2
2019-02-16T19:13:21.657Z,10753.3
2019-02-16T19:23:20.871Z,10753.4
2019-02-16T19:33:20.159Z,10753.5
2019-02-16T19:43:19.300Z,10753.6
2019-02-16T19:53:18.515Z,10753.6
2019-02-16T20:03:17.731Z,10753.7
2019-02-16T20:13:16.947Z,10753.8
2019-02-16T20:23:16.171Z,10753.9
2019-02-16T20:33:15.386Z,10754
2019-02-16T20:43:14.609Z,10754.1
2019-02-16T20:53:13.830Z,10754.2
2019-02-16T21:03:13.044Z,10754.3
2019-02-16T21:12:08.328Z,10754.2
2019-02-16T21:22:08.787Z,10754.3
2019-02-16T21:32:06.759Z,10754.4
2019-02-16T21:42:05.996Z,10754.5
2019-02-16T21:52:05.188Z,10754.6
2019-02-16T22:02:04.403Z,10754.7
2019-02-16T22:12:03.711Z,10754.8
2019-02-16T22:22:02.951Z,10754.8
2019-02-16T22:32:02.239Z,10754.9
2019-02-16T22:42:01.525Z,10755
2019-02-16T22:52:00.813Z,10755.1
2019-02-16T23:02:00.100Z,10755.2
2019-02-16T23:11:59.308Z,10755.3
2019-02-16T23:21:58.518Z,10755.4
2019-02-16T23:31:57.730Z,10755.5
2019-02-16T23:41:56.986Z,10755.6
2019-02-16T23:51:56.143Z,10755.6
